Columbus Air Force Base
KCBM : rendu visible

Aérodrome :











RETROUVEZ-NOUS SUR...

 
LOGIN :

S'inscrire | Disclaimer

   EN    FR    IT 

 









Légende :    VFR   VFR Marginal   IFR   IFR Intensif   IFR Très Intensif
Visi : 
Plafond : 
>= 8 km
>= 3000ft
5 à 8 km
1000 à 3000 ft
1500m à 5 km
500 à 1000 ft
800 à 1500m
200 à 500 ft
< 800m
< 200 ft
Symboles :   Orages  Brouillard  Fortes neiges  Fortes précipitations  Vent > 20 kt






- Altitude de l'aérodrome : 219 ft


KCBM - Columbus Air Force Base

DERNIER METAR :
  • 202356Z AUTO 35011KT 10SM OVC019 05/02 A3041 RMK AO2 SLP302 60008 T00490016 10058 20048 52025

METARs EXPIRÉS :
  • 202256Z AUTO 01013G22KT 10SM BKN018 OVC026 05/02 A3038 RMK AO2 BKN V OVC SLP292 T00520020
  • 202236Z AUTO 01016G19KT 10SM OVC016 05/02 A3037 RMK AO2 SLP288
  • 202201Z AUTO 01017G24KT 10SM OVC015 05/02 A3036 RMK AO2 SLP285

TAF AMD TAF KCBM
Valide du 20 à 22h jusqu'au 21 à 23h UTC


202240Z 2022/2123 01012G18KT 9999 BKN015 QNH3029INS
BECMG 2023/2100 36009KT 9999 FEW020 QNH3042INS
BECMG 2114/2115 02012G18KT 9999 SKC 510073 QNH3049INS TX05/2022Z TNM02/2111Z



MET'MAP, la Météo Aéronautique d'un coup d'oeil ! - Copyright ORBIFLY Décembre 2007 - Disclaimer

ORBIFLY MET'MAP TEAM :

Programmation & Développement : Alexandra Zaïnal
Sur une idée originale de : Baudouin d'Aumeries
Assistance à la programmation : Marc-Olivier Méhu
Soutien technique & logistique : Manuel Goepfert

Contact : metmap@orbifly.com




SOURCES & CREDITS :

   NOAA       Earth
Advisory